Pium, Brazil
Current Conditions -  °F | °C
As of 5:25 PM on Monday 22 Dec 2014 (Local Time) from SBPJ Reporting Station
Thunderstorm Thunderstorm  
Wind Chill: 75°   Ceiling: 7000
Heat Index: 75°   Visibility: 4mi
Dew Point: 70°   Wind: 3mph
Humidity: 83%   Direction: 60°ENE
Pressure: 29.8"   Gusts: NA
Location:  10.44°S, 49.18°W
Report Text: SBPJ 222025Z 06003KT 6000 -TSRA FEW025 FEW030CB BKN070 24/21 Q1009
Loading
Personal Weather Stations






























Interactive Weather Map New forecast layout! Learn more

10-Day Weather Forecast

Advertisements
Track Severe Weather on mobile